sensor_id;sensor_type;location;lat;lon;timestamp;P1;durP1;ratioP1;P2;durP2;ratioP2
71317;SDS011;59106;44.706;18.310;2024-01-15T00:00:18;229.27;;;133.23;;
71317;SDS011;59106;44.706;18.310;2024-01-15T00:03:06;229.73;;;135.05;;
71317;SDS011;59106;44.706;18.310;2024-01-15T00:05:32;253.50;;;148.00;;
71317;SDS011;59106;44.706;18.310;2024-01-15T00:08:00;279.27;;;157.38;;
71317;SDS011;59106;44.706;18.310;2024-01-15T00:10:26;270.08;;;154.30;;
71317;SDS011;59106;44.706;18.310;2024-01-15T00:12:52;269.88;;;153.40;;
71317;SDS011;59106;44.706;18.310;2024-01-15T00:15:18;256.03;;;146.87;;
71317;SDS011;59106;44.706;18.310;2024-01-15T00:17:46;275.73;;;155.80;;
71317;SDS011;59106;44.706;18.310;2024-01-15T00:20:17;255.05;;;141.05;;
71317;SDS011;59106;44.706;18.310;2024-01-15T00:22:46;213.02;;;120.75;;
71317;SDS011;59106;44.706;18.310;2024-01-15T00:25:13;169.70;;;91.90;;
71317;SDS011;59106;44.706;18.310;2024-01-15T00:27:40;158.45;;;89.68;;
71317;SDS011;59106;44.706;18.310;2024-01-15T00:30:08;216.50;;;121.20;;
71317;SDS011;59106;44.706;18.310;2024-01-15T00:32:35;222.98;;;128.00;;
71317;SDS011;59106;44.706;18.310;2024-01-15T00:35:02;241.07;;;131.13;;
71317;SDS011;59106;44.706;18.310;2024-01-15T00:37:30;199.65;;;115.57;;
71317;SDS011;59106;44.706;18.310;2024-01-15T00:39:57;240.30;;;126.87;;
71317;SDS011;59106;44.706;18.310;2024-01-15T00:42:26;205.00;;;116.00;;
71317;SDS011;59106;44.706;18.310;2024-01-15T00:44:54;208.05;;;116.25;;
71317;SDS011;59106;44.706;18.310;2024-01-15T00:47:20;200.10;;;111.90;;
71317;SDS011;59106;44.706;18.310;2024-01-15T00:49:47;205.95;;;115.15;;
71317;SDS011;59106;44.706;18.310;2024-01-15T00:52:14;208.63;;;117.90;;
71317;SDS011;59106;44.706;18.310;2024-01-15T00:54:41;201.85;;;117.95;;
71317;SDS011;59106;44.706;18.310;2024-01-15T00:57:08;201.90;;;119.78;;
71317;SDS011;59106;44.706;18.310;2024-01-15T00:59:34;208.82;;;121.97;;
71317;SDS011;59106;44.706;18.310;2024-01-15T01:02:00;207.55;;;121.15;;
71317;SDS011;59106;44.706;18.310;2024-01-15T01:04:26;209.10;;;124.43;;
71317;SDS011;59106;44.706;18.310;2024-01-15T01:06:52;210.73;;;127.22;;
71317;SDS011;59106;44.706;18.310;2024-01-15T01:09:18;204.83;;;121.00;;
71317;SDS011;59106;44.706;18.310;2024-01-15T01:11:45;192.07;;;116.15;;
71317;SDS011;59106;44.706;18.310;2024-01-15T01:14:14;201.55;;;118.30;;
71317;SDS011;59106;44.706;18.310;2024-01-15T01:16:40;202.70;;;119.72;;
71317;SDS011;59106;44.706;18.310;2024-01-15T01:19:06;204.53;;;123.20;;
71317;SDS011;59106;44.706;18.310;2024-01-15T01:21:33;203.32;;;123.07;;
71317;SDS011;59106;44.706;18.310;2024-01-15T01:24:00;214.77;;;128.07;;
71317;SDS011;59106;44.706;18.310;2024-01-15T01:26:26;226.20;;;130.75;;
71317;SDS011;59106;44.706;18.310;2024-01-15T01:28:52;212.82;;;122.85;;
71317;SDS011;59106;44.706;18.310;2024-01-15T01:31:19;209.20;;;123.63;;
71317;SDS011;59106;44.706;18.310;2024-01-15T01:33:45;201.15;;;118.55;;
71317;SDS011;59106;44.706;18.310;2024-01-15T01:36:12;192.43;;;116.30;;
71317;SDS011;59106;44.706;18.310;2024-01-15T01:38:39;205.18;;;121.65;;
71317;SDS011;59106;44.706;18.310;2024-01-15T01:41:08;210.00;;;122.05;;
71317;SDS011;59106;44.706;18.310;2024-01-15T01:43:42;204.52;;;121.38;;
71317;SDS011;59106;44.706;18.310;2024-01-15T01:46:12;130.55;;;79.00;;
71317;SDS011;59106;44.706;18.310;2024-01-15T01:48:38;189.18;;;110.80;;
71317;SDS011;59106;44.706;18.310;2024-01-15T01:51:05;193.13;;;114.05;;
71317;SDS011;59106;44.706;18.310;2024-01-15T01:53:33;203.82;;;120.78;;
71317;SDS011;59106;44.706;18.310;2024-01-15T01:56:03;141.68;;;83.78;;
71317;SDS011;59106;44.706;18.310;2024-01-15T01:58:33;124.93;;;73.43;;
71317;SDS011;59106;44.706;18.310;2024-01-15T02:01:04;151.63;;;90.53;;
71317;SDS011;59106;44.706;18.310;2024-01-15T02:03:31;184.80;;;108.13;;
71317;SDS011;59106;44.706;18.310;2024-01-15T02:05:59;197.05;;;116.50;;
71317;SDS011;59106;44.706;18.310;2024-01-15T02:11:59;185.55;;;106.65;;
71317;SDS011;59106;44.706;18.310;2024-01-15T02:14:26;198.73;;;115.17;;
71317;SDS011;59106;44.706;18.310;2024-01-15T02:16:52;177.38;;;104.88;;
71317;SDS011;59106;44.706;18.310;2024-01-15T02:19:18;188.98;;;110.68;;
71317;SDS011;59106;44.706;18.310;2024-01-15T02:21:44;180.77;;;105.85;;
71317;SDS011;59106;44.706;18.310;2024-01-15T02:24:10;182.70;;;108.37;;
71317;SDS011;59106;44.706;18.310;2024-01-15T02:26:36;190.65;;;113.35;;
71317;SDS011;59106;44.706;18.310;2024-01-15T02:29:04;137.57;;;78.53;;
71317;SDS011;59106;44.706;18.310;2024-01-15T02:31:30;121.73;;;70.13;;
71317;SDS011;59106;44.706;18.310;2024-01-15T02:33:56;159.98;;;93.70;;
71317;SDS011;59106;44.706;18.310;2024-01-15T02:36:22;162.00;;;92.68;;
71317;SDS011;59106;44.706;18.310;2024-01-15T02:38:48;159.03;;;92.03;;
71317;SDS011;59106;44.706;18.310;2024-01-15T02:41:13;152.20;;;89.53;;
71317;SDS011;59106;44.706;18.310;2024-01-15T02:43:40;166.93;;;96.47;;
71317;SDS011;59106;44.706;18.310;2024-01-15T02:46:06;157.55;;;90.38;;
71317;SDS011;59106;44.706;18.310;2024-01-15T02:48:32;153.40;;;86.43;;
71317;SDS011;59106;44.706;18.310;2024-01-15T02:51:00;141.02;;;83.50;;
71317;SDS011;59106;44.706;18.310;2024-01-15T02:53:26;145.88;;;85.63;;
71317;SDS011;59106;44.706;18.310;2024-01-15T02:55:52;143.57;;;83.43;;
71317;SDS011;59106;44.706;18.310;2024-01-15T02:58:18;145.77;;;83.30;;
71317;SDS011;59106;44.706;18.310;2024-01-15T03:00:43;152.70;;;87.03;;
71317;SDS011;59106;44.706;18.310;2024-01-15T03:03:10;142.20;;;83.30;;
71317;SDS011;59106;44.706;18.310;2024-01-15T03:05:36;145.45;;;82.07;;
71317;SDS011;59106;44.706;18.310;2024-01-15T03:08:02;143.98;;;84.03;;
71317;SDS011;59106;44.706;18.310;2024-01-15T03:10:28;142.77;;;83.20;;
71317;SDS011;59106;44.706;18.310;2024-01-15T03:12:54;139.43;;;82.72;;
71317;SDS011;59106;44.706;18.310;2024-01-15T03:15:20;145.57;;;84.53;;
71317;SDS011;59106;44.706;18.310;2024-01-15T03:17:46;143.93;;;84.82;;
71317;SDS011;59106;44.706;18.310;2024-01-15T03:20:11;144.18;;;84.00;;
71317;SDS011;59106;44.706;18.310;2024-01-15T03:22:37;139.60;;;81.13;;
71317;SDS011;59106;44.706;18.310;2024-01-15T03:25:03;140.30;;;81.32;;
71317;SDS011;59106;44.706;18.310;2024-01-15T03:27:30;139.88;;;82.97;;
71317;SDS011;59106;44.706;18.310;2024-01-15T03:29:55;143.47;;;83.30;;
71317;SDS011;59106;44.706;18.310;2024-01-15T03:32:21;143.23;;;86.75;;
71317;SDS011;59106;44.706;18.310;2024-01-15T03:34:47;136.13;;;82.13;;
71317;SDS011;59106;44.706;18.310;2024-01-15T03:37:14;129.43;;;79.95;;
71317;SDS011;59106;44.706;18.310;2024-01-15T03:39:39;134.07;;;80.80;;
71317;SDS011;59106;44.706;18.310;2024-01-15T03:42:06;134.60;;;82.95;;
71317;SDS011;59106;44.706;18.310;2024-01-15T03:44:31;123.03;;;76.13;;
71317;SDS011;59106;44.706;18.310;2024-01-15T03:46:57;129.13;;;77.57;;
71317;SDS011;59106;44.706;18.310;2024-01-15T03:49:23;123.28;;;77.35;;
71317;SDS011;59106;44.706;18.310;2024-01-15T03:51:49;122.47;;;73.80;;
71317;SDS011;59106;44.706;18.310;2024-01-15T03:54:15;125.13;;;74.50;;
71317;SDS011;59106;44.706;18.310;2024-01-15T03:56:41;133.77;;;77.15;;
71317;SDS011;59106;44.706;18.310;2024-01-15T03:59:07;107.57;;;65.93;;
71317;SDS011;59106;44.706;18.310;2024-01-15T04:01:33;96.13;;;60.05;;
71317;SDS011;59106;44.706;18.310;2024-01-15T04:03:59;87.97;;;54.33;;
71317;SDS011;59106;44.706;18.310;2024-01-15T04:06:25;91.28;;;57.03;;
71317;SDS011;59106;44.706;18.310;2024-01-15T04:08:50;91.40;;;57.37;;
71317;SDS011;59106;44.706;18.310;2024-01-15T04:11:16;107.75;;;65.85;;
71317;SDS011;59106;44.706;18.310;2024-01-15T04:13:42;114.25;;;70.35;;
71317;SDS011;59106;44.706;18.310;2024-01-15T04:16:08;95.57;;;59.40;;
71317;SDS011;59106;44.706;18.310;2024-01-15T04:18:34;96.50;;;59.70;;
71317;SDS011;59106;44.706;18.310;2024-01-15T04:21:00;94.60;;;60.25;;
71317;SDS011;59106;44.706;18.310;2024-01-15T04:23:26;97.22;;;61.40;;
71317;SDS011;59106;44.706;18.310;2024-01-15T04:25:51;99.85;;;62.78;;
71317;SDS011;59106;44.706;18.310;2024-01-15T04:28:17;95.30;;;60.83;;
71317;SDS011;59106;44.706;18.310;2024-01-15T04:30:43;93.63;;;58.75;;
71317;SDS011;59106;44.706;18.310;2024-01-15T04:33:09;83.87;;;54.10;;
71317;SDS011;59106;44.706;18.310;2024-01-15T04:35:35;93.00;;;57.60;;
71317;SDS011;59106;44.706;18.310;2024-01-15T04:38:01;104.03;;;64.27;;
71317;SDS011;59106;44.706;18.310;2024-01-15T04:40:27;93.65;;;58.70;;
71317;SDS011;59106;44.706;18.310;2024-01-15T04:42:53;98.67;;;60.60;;
71317;SDS011;59106;44.706;18.310;2024-01-15T04:45:20;103.03;;;62.90;;
71317;SDS011;59106;44.706;18.310;2024-01-15T04:47:48;105.40;;;62.03;;
71317;SDS011;59106;44.706;18.310;2024-01-15T04:50:14;129.55;;;72.63;;
71317;SDS011;59106;44.706;18.310;2024-01-15T04:52:40;89.05;;;54.00;;
71317;SDS011;59106;44.706;18.310;2024-01-15T04:55:06;100.83;;;56.17;;
71317;SDS011;59106;44.706;18.310;2024-01-15T04:57:32;98.20;;;54.20;;
71317;SDS011;59106;44.706;18.310;2024-01-15T04:59:58;108.18;;;57.92;;
71317;SDS011;59106;44.706;18.310;2024-01-15T05:02:24;110.83;;;59.00;;
71317;SDS011;59106;44.706;18.310;2024-01-15T05:04:50;104.28;;;56.55;;
71317;SDS011;59106;44.706;18.310;2024-01-15T05:07:16;97.90;;;53.43;;
71317;SDS011;59106;44.706;18.310;2024-01-15T05:09:42;102.67;;;54.30;;
71317;SDS011;59106;44.706;18.310;2024-01-15T05:12:08;90.18;;;48.67;;
71317;SDS011;59106;44.706;18.310;2024-01-15T05:14:34;175.43;;;83.90;;
71317;SDS011;59106;44.706;18.310;2024-01-15T05:16:59;127.23;;;59.40;;
71317;SDS011;59106;44.706;18.310;2024-01-15T05:19:26;120.43;;;57.05;;
71317;SDS011;59106;44.706;18.310;2024-01-15T05:21:52;136.50;;;63.65;;
71317;SDS011;59106;44.706;18.310;2024-01-15T05:24:18;125.93;;;58.63;;
71317;SDS011;59106;44.706;18.310;2024-01-15T05:26:43;111.87;;;55.37;;
71317;SDS011;59106;44.706;18.310;2024-01-15T05:29:09;112.88;;;55.70;;
71317;SDS011;59106;44.706;18.310;2024-01-15T05:31:35;143.93;;;64.53;;
71317;SDS011;59106;44.706;18.310;2024-01-15T05:34:01;98.07;;;48.00;;
71317;SDS011;59106;44.706;18.310;2024-01-15T05:36:27;119.23;;;54.90;;
71317;SDS011;59106;44.706;18.310;2024-01-15T05:38:53;170.43;;;73.72;;
71317;SDS011;59106;44.706;18.310;2024-01-15T05:41:19;143.27;;;67.07;;
71317;SDS011;59106;44.706;18.310;2024-01-15T05:43:45;110.72;;;54.20;;
71317;SDS011;59106;44.706;18.310;2024-01-15T05:46:10;130.77;;;61.00;;
71317;SDS011;59106;44.706;18.310;2024-01-15T05:48:36;127.47;;;59.95;;
71317;SDS011;59106;44.706;18.310;2024-01-15T05:51:02;121.15;;;56.47;;
71317;SDS011;59106;44.706;18.310;2024-01-15T05:53:28;103.90;;;51.27;;
71317;SDS011;59106;44.706;18.310;2024-01-15T05:55:54;99.93;;;50.17;;
71317;SDS011;59106;44.706;18.310;2024-01-15T05:58:21;106.47;;;52.20;;
71317;SDS011;59106;44.706;18.310;2024-01-15T06:00:47;100.23;;;50.23;;
71317;SDS011;59106;44.706;18.310;2024-01-15T06:03:13;127.80;;;60.13;;
71317;SDS011;59106;44.706;18.310;2024-01-15T06:05:39;167.17;;;80.97;;
71317;SDS011;59106;44.706;18.310;2024-01-15T06:08:05;120.32;;;59.67;;
71317;SDS011;59106;44.706;18.310;2024-01-15T06:10:31;138.20;;;67.40;;
71317;SDS011;59106;44.706;18.310;2024-01-15T06:12:57;136.75;;;65.32;;
71317;SDS011;59106;44.706;18.310;2024-01-15T06:15:23;145.27;;;67.13;;
71317;SDS011;59106;44.706;18.310;2024-01-15T06:17:49;238.13;;;96.57;;
71317;SDS011;59106;44.706;18.310;2024-01-15T06:20:14;190.40;;;84.47;;
71317;SDS011;59106;44.706;18.310;2024-01-15T06:22:41;359.33;;;153.77;;
71317;SDS011;59106;44.706;18.310;2024-01-15T06:25:07;321.15;;;141.98;;
71317;SDS011;59106;44.706;18.310;2024-01-15T06:27:33;253.73;;;115.13;;
71317;SDS011;59106;44.706;18.310;2024-01-15T06:29:59;273.20;;;123.78;;
71317;SDS011;59106;44.706;18.310;2024-01-15T06:32:25;357.65;;;149.35;;
71317;SDS011;59106;44.706;18.310;2024-01-15T06:34:51;272.53;;;117.83;;
71317;SDS011;59106;44.706;18.310;2024-01-15T06:37:17;294.40;;;127.15;;
71317;SDS011;59106;44.706;18.310;2024-01-15T06:39:44;246.23;;;109.38;;
71317;SDS011;59106;44.706;18.310;2024-01-15T06:42:10;257.15;;;115.32;;
71317;SDS011;59106;44.706;18.310;2024-01-15T06:44:36;244.02;;;111.07;;
71317;SDS011;59106;44.706;18.310;2024-01-15T06:47:02;303.58;;;137.23;;
71317;SDS011;59106;44.706;18.310;2024-01-15T06:49:28;287.33;;;128.70;;
71317;SDS011;59106;44.706;18.310;2024-01-15T06:51:56;372.98;;;163.27;;
71317;SDS011;59106;44.706;18.310;2024-01-15T06:54:21;267.05;;;119.82;;
71317;SDS011;59106;44.706;18.310;2024-01-15T06:56:49;236.23;;;109.60;;
71317;SDS011;59106;44.706;18.310;2024-01-15T06:59:15;232.82;;;108.22;;
71317;SDS011;59106;44.706;18.310;2024-01-15T07:01:41;254.40;;;116.47;;
71317;SDS011;59106;44.706;18.310;2024-01-15T07:04:07;220.77;;;107.67;;
71317;SDS011;59106;44.706;18.310;2024-01-15T07:06:36;228.45;;;110.63;;
71317;SDS011;59106;44.706;18.310;2024-01-15T07:09:04;266.88;;;121.18;;
71317;SDS011;59106;44.706;18.310;2024-01-15T07:11:32;327.10;;;154.07;;
71317;SDS011;59106;44.706;18.310;2024-01-15T07:13:58;254.25;;;124.20;;
71317;SDS011;59106;44.706;18.310;2024-01-15T07:16:24;194.73;;;94.67;;
71317;SDS011;59106;44.706;18.310;2024-01-15T07:18:50;237.00;;;112.63;;
71317;SDS011;59106;44.706;18.310;2024-01-15T07:21:16;238.00;;;113.90;;
71317;SDS011;59106;44.706;18.310;2024-01-15T07:23:41;319.80;;;135.20;;
71317;SDS011;59106;44.706;18.310;2024-01-15T07:26:08;253.67;;;123.53;;
71317;SDS011;59106;44.706;18.310;2024-01-15T07:28:34;309.98;;;151.18;;
71317;SDS011;59106;44.706;18.310;2024-01-15T07:31:00;246.30;;;128.93;;
71317;SDS011;59106;44.706;18.310;2024-01-15T07:33:29;201.40;;;102.17;;
71317;SDS011;59106;44.706;18.310;2024-01-15T07:35:55;273.02;;;124.35;;
71317;SDS011;59106;44.706;18.310;2024-01-15T07:38:21;303.40;;;137.40;;
71317;SDS011;59106;44.706;18.310;2024-01-15T07:40:47;337.23;;;152.38;;
71317;SDS011;59106;44.706;18.310;2024-01-15T07:43:14;325.60;;;146.57;;
71317;SDS011;59106;44.706;18.310;2024-01-15T07:45:41;224.40;;;103.90;;
71317;SDS011;59106;44.706;18.310;2024-01-15T07:48:06;302.40;;;141.70;;
71317;SDS011;59106;44.706;18.310;2024-01-15T07:50:32;292.90;;;138.75;;
71317;SDS011;59106;44.706;18.310;2024-01-15T07:52:58;283.83;;;136.77;;
71317;SDS011;59106;44.706;18.310;2024-01-15T07:55:24;286.98;;;137.88;;
71317;SDS011;59106;44.706;18.310;2024-01-15T07:57:50;300.50;;;144.98;;
71317;SDS011;59106;44.706;18.310;2024-01-15T08:00:18;279.45;;;138.45;;
71317;SDS011;59106;44.706;18.310;2024-01-15T08:02:43;307.43;;;153.10;;
71317;SDS011;59106;44.706;18.310;2024-01-15T08:05:09;350.08;;;175.23;;
71317;SDS011;59106;44.706;18.310;2024-01-15T08:07:35;380.95;;;184.80;;
71317;SDS011;59106;44.706;18.310;2024-01-15T08:10:01;326.38;;;153.27;;
71317;SDS011;59106;44.706;18.310;2024-01-15T08:12:27;315.02;;;154.40;;
71317;SDS011;59106;44.706;18.310;2024-01-15T08:14:53;321.92;;;155.45;;
71317;SDS011;59106;44.706;18.310;2024-01-15T08:17:19;318.20;;;156.73;;
71317;SDS011;59106;44.706;18.310;2024-01-15T08:19:45;324.02;;;160.52;;
71317;SDS011;59106;44.706;18.310;2024-01-15T08:22:11;326.23;;;165.67;;
71317;SDS011;59106;44.706;18.310;2024-01-15T08:24:37;319.73;;;162.93;;
71317;SDS011;59106;44.706;18.310;2024-01-15T08:27:03;341.05;;;164.65;;
71317;SDS011;59106;44.706;18.310;2024-01-15T08:29:30;335.75;;;169.77;;
71317;SDS011;59106;44.706;18.310;2024-01-15T08:31:59;321.00;;;159.43;;
71317;SDS011;59106;44.706;18.310;2024-01-15T08:34:25;485.10;;;260.90;;
71317;SDS011;59106;44.706;18.310;2024-01-15T08:36:50;433.23;;;233.50;;
71317;SDS011;59106;44.706;18.310;2024-01-15T08:39:17;358.63;;;185.02;;
71317;SDS011;59106;44.706;18.310;2024-01-15T08:41:44;390.67;;;198.25;;
71317;SDS011;59106;44.706;18.310;2024-01-15T08:44:12;382.55;;;199.70;;
71317;SDS011;59106;44.706;18.310;2024-01-15T08:46:38;342.90;;;174.52;;
71317;SDS011;59106;44.706;18.310;2024-01-15T08:49:04;240.70;;;120.65;;
71317;SDS011;59106;44.706;18.310;2024-01-15T08:51:30;233.17;;;120.37;;
71317;SDS011;59106;44.706;18.310;2024-01-15T08:53:56;217.27;;;110.65;;
71317;SDS011;59106;44.706;18.310;2024-01-15T08:56:22;213.48;;;108.38;;
71317;SDS011;59106;44.706;18.310;2024-01-15T08:58:48;223.40;;;113.70;;
71317;SDS011;59106;44.706;18.310;2024-01-15T09:01:14;214.87;;;111.77;;
71317;SDS011;59106;44.706;18.310;2024-01-15T09:03:40;177.63;;;90.72;;
71317;SDS011;59106;44.706;18.310;2024-01-15T09:06:08;225.05;;;118.00;;
71317;SDS011;59106;44.706;18.310;2024-01-15T09:08:35;238.55;;;126.20;;
71317;SDS011;59106;44.706;18.310;2024-01-15T09:11:01;365.92;;;183.00;;
71317;SDS011;59106;44.706;18.310;2024-01-15T09:13:29;407.00;;;215.60;;
71317;SDS011;59106;44.706;18.310;2024-01-15T09:15:54;364.20;;;189.27;;
71317;SDS011;59106;44.706;18.310;2024-01-15T09:18:20;330.63;;;164.90;;
71317;SDS011;59106;44.706;18.310;2024-01-15T09:20:47;349.52;;;179.65;;
71317;SDS011;59106;44.706;18.310;2024-01-15T09:23:13;403.00;;;218.05;;
71317;SDS011;59106;44.706;18.310;2024-01-15T09:25:40;337.20;;;175.57;;
71317;SDS011;59106;44.706;18.310;2024-01-15T09:28:06;325.67;;;172.02;;
71317;SDS011;59106;44.706;18.310;2024-01-15T09:30:33;350.70;;;180.53;;
71317;SDS011;59106;44.706;18.310;2024-01-15T09:32:59;369.92;;;191.80;;
71317;SDS011;59106;44.706;18.310;2024-01-15T09:35:25;373.27;;;192.20;;
71317;SDS011;59106;44.706;18.310;2024-01-15T09:37:51;371.58;;;190.57;;
71317;SDS011;59106;44.706;18.310;2024-01-15T09:40:17;380.87;;;196.17;;
71317;SDS011;59106;44.706;18.310;2024-01-15T09:42:43;390.93;;;203.13;;
71317;SDS011;59106;44.706;18.310;2024-01-15T09:45:09;371.83;;;200.63;;
71317;SDS011;59106;44.706;18.310;2024-01-15T09:47:36;385.00;;;206.80;;
71317;SDS011;59106;44.706;18.310;2024-01-15T09:50:02;320.40;;;172.57;;
71317;SDS011;59106;44.706;18.310;2024-01-15T09:52:30;304.73;;;161.07;;
71317;SDS011;59106;44.706;18.310;2024-01-15T09:54:56;294.08;;;154.20;;
71317;SDS011;59106;44.706;18.310;2024-01-15T09:57:23;330.30;;;178.03;;
71317;SDS011;59106;44.706;18.310;2024-01-15T09:59:49;435.48;;;245.45;;
71317;SDS011;59106;44.706;18.310;2024-01-15T10:02:15;456.08;;;258.63;;
71317;SDS011;59106;44.706;18.310;2024-01-15T10:04:44;455.30;;;260.85;;
71317;SDS011;59106;44.706;18.310;2024-01-15T10:07:11;465.92;;;259.05;;
71317;SDS011;59106;44.706;18.310;2024-01-15T10:09:40;439.38;;;239.93;;
71317;SDS011;59106;44.706;18.310;2024-01-15T10:12:07;409.38;;;222.55;;
71317;SDS011;59106;44.706;18.310;2024-01-15T10:14:33;428.10;;;240.90;;
71317;SDS011;59106;44.706;18.310;2024-01-15T10:16:59;353.15;;;190.32;;
71317;SDS011;59106;44.706;18.310;2024-01-15T10:19:25;377.50;;;199.97;;
71317;SDS011;59106;44.706;18.310;2024-01-15T10:21:51;349.08;;;187.80;;
71317;SDS011;59106;44.706;18.310;2024-01-15T10:24:17;343.67;;;183.30;;
71317;SDS011;59106;44.706;18.310;2024-01-15T10:26:43;317.30;;;167.27;;
71317;SDS011;59106;44.706;18.310;2024-01-15T10:29:10;341.92;;;184.60;;
71317;SDS011;59106;44.706;18.310;2024-01-15T10:31:37;335.60;;;178.93;;
71317;SDS011;59106;44.706;18.310;2024-01-15T10:34:10;387.67;;;211.25;;
71317;SDS011;59106;44.706;18.310;2024-01-15T10:36:36;320.67;;;170.30;;
71317;SDS011;59106;44.706;18.310;2024-01-15T10:39:04;340.60;;;181.13;;
71317;SDS011;59106;44.706;18.310;2024-01-15T10:41:31;381.42;;;211.30;;
71317;SDS011;59106;44.706;18.310;2024-01-15T10:43:57;385.60;;;216.33;;
71317;SDS011;59106;44.706;18.310;2024-01-15T10:46:23;376.23;;;206.98;;
71317;SDS011;59106;44.706;18.310;2024-01-15T10:48:49;421.98;;;237.93;;
71317;SDS011;59106;44.706;18.310;2024-01-15T10:51:16;453.67;;;260.20;;
71317;SDS011;59106;44.706;18.310;2024-01-15T10:53:42;439.47;;;249.20;;
71317;SDS011;59106;44.706;18.310;2024-01-15T10:56:08;437.75;;;252.98;;
71317;SDS011;59106;44.706;18.310;2024-01-15T10:58:35;473.40;;;280.10;;
71317;SDS011;59106;44.706;18.310;2024-01-15T11:01:03;443.52;;;260.08;;
71317;SDS011;59106;44.706;18.310;2024-01-15T11:03:30;504.02;;;300.42;;
71317;SDS011;59106;44.706;18.310;2024-01-15T11:05:56;511.83;;;307.20;;
71317;SDS011;59106;44.706;18.310;2024-01-15T11:08:22;505.43;;;306.40;;
71317;SDS011;59106;44.706;18.310;2024-01-15T11:10:50;505.92;;;312.92;;
71317;SDS011;59106;44.706;18.310;2024-01-15T11:18:22;515.58;;;328.75;;
71317;SDS011;59106;44.706;18.310;2024-01-15T11:23:57;364.30;;;210.18;;
71317;SDS011;59106;44.706;18.310;2024-01-15T11:28:56;347.47;;;188.80;;
71317;SDS011;59106;44.706;18.310;2024-01-15T11:31:56;343.52;;;192.05;;
71317;SDS011;59106;44.706;18.310;2024-01-15T11:34:13;344.03;;;188.03;;
71317;SDS011;59106;44.706;18.310;2024-01-15T11:41:58;385.60;;;215.00;;
71317;SDS011;59106;44.706;18.310;2024-01-15T11:44:25;389.27;;;215.20;;
71317;SDS011;59106;44.706;18.310;2024-01-15T11:47:12;325.60;;;170.70;;
71317;SDS011;59106;44.706;18.310;2024-01-15T11:52:25;377.35;;;209.90;;
71317;SDS011;59106;44.706;18.310;2024-01-15T11:57:40;434.42;;;245.85;;
71317;SDS011;59106;44.706;18.310;2024-01-15T12:00:09;433.77;;;242.77;;
71317;SDS011;59106;44.706;18.310;2024-01-15T12:02:35;422.05;;;239.27;;
71317;SDS011;59106;44.706;18.310;2024-01-15T12:05:01;460.02;;;266.92;;
71317;SDS011;59106;44.706;18.310;2024-01-15T12:07:28;486.58;;;293.73;;
71317;SDS011;59106;44.706;18.310;2024-01-15T12:09:54;504.25;;;302.95;;
71317;SDS011;59106;44.706;18.310;2024-01-15T12:15:04;629.55;;;383.98;;
71317;SDS011;59106;44.706;18.310;2024-01-15T12:17:31;611.97;;;373.83;;
71317;SDS011;59106;44.706;18.310;2024-01-15T12:19:57;604.03;;;372.45;;
71317;SDS011;59106;44.706;18.310;2024-01-15T12:22:23;582.47;;;358.17;;
71317;SDS011;59106;44.706;18.310;2024-01-15T12:24:49;588.73;;;362.27;;
71317;SDS011;59106;44.706;18.310;2024-01-15T12:27:15;595.70;;;371.52;;
71317;SDS011;59106;44.706;18.310;2024-01-15T12:29:41;580.00;;;361.30;;
71317;SDS011;59106;44.706;18.310;2024-01-15T12:32:08;606.13;;;377.08;;
71317;SDS011;59106;44.706;18.310;2024-01-15T12:34:34;584.65;;;362.05;;
71317;SDS011;59106;44.706;18.310;2024-01-15T12:37:00;551.13;;;346.33;;
71317;SDS011;59106;44.706;18.310;2024-01-15T12:39:26;546.23;;;343.63;;
71317;SDS011;59106;44.706;18.310;2024-01-15T12:41:52;527.05;;;331.17;;
71317;SDS011;59106;44.706;18.310;2024-01-15T12:44:20;499.10;;;309.30;;
71317;SDS011;59106;44.706;18.310;2024-01-15T12:46:47;493.20;;;306.17;;
71317;SDS011;59106;44.706;18.310;2024-01-15T12:49:13;492.63;;;306.33;;
71317;SDS011;59106;44.706;18.310;2024-01-15T12:51:39;499.87;;;313.33;;
71317;SDS011;59106;44.706;18.310;2024-01-15T12:54:04;527.03;;;331.75;;
71317;SDS011;59106;44.706;18.310;2024-01-15T12:56:30;532.15;;;335.35;;
71317;SDS011;59106;44.706;18.310;2024-01-15T12:58:56;567.03;;;355.60;;
71317;SDS011;59106;44.706;18.310;2024-01-15T13:01:22;571.78;;;357.88;;
71317;SDS011;59106;44.706;18.310;2024-01-15T13:03:48;590.53;;;375.07;;
71317;SDS011;59106;44.706;18.310;2024-01-15T13:06:14;614.73;;;387.33;;
71317;SDS011;59106;44.706;18.310;2024-01-15T13:08:41;639.65;;;401.88;;
71317;SDS011;59106;44.706;18.310;2024-01-15T13:11:07;515.30;;;320.17;;
71317;SDS011;59106;44.706;18.310;2024-01-15T13:13:32;554.50;;;337.90;;
71317;SDS011;59106;44.706;18.310;2024-01-15T13:16:00;522.17;;;317.30;;
71317;SDS011;59106;44.706;18.310;2024-01-15T13:18:26;553.17;;;342.75;;
71317;SDS011;59106;44.706;18.310;2024-01-15T13:20:52;497.08;;;301.33;;
71317;SDS011;59106;44.706;18.310;2024-01-15T13:23:17;479.85;;;290.20;;
71317;SDS011;59106;44.706;18.310;2024-01-15T13:25:43;399.15;;;229.88;;
71317;SDS011;59106;44.706;18.310;2024-01-15T13:28:09;140.60;;;66.15;;
71317;SDS011;59106;44.706;18.310;2024-01-15T13:30:35;117.25;;;52.17;;
71317;SDS011;59106;44.706;18.310;2024-01-15T13:33:02;186.05;;;90.93;;
71317;SDS011;59106;44.706;18.310;2024-01-15T13:35:30;200.82;;;103.30;;
71317;SDS011;59106;44.706;18.310;2024-01-15T13:37:56;214.97;;;108.77;;
71317;SDS011;59106;44.706;18.310;2024-01-15T13:40:22;260.90;;;132.57;;
71317;SDS011;59106;44.706;18.310;2024-01-15T13:42:47;356.17;;;165.90;;
71317;SDS011;59106;44.706;18.310;2024-01-15T13:45:14;375.88;;;205.68;;
71317;SDS011;59106;44.706;18.310;2024-01-15T13:47:40;409.67;;;231.32;;
71317;SDS011;59106;44.706;18.310;2024-01-15T13:50:08;409.25;;;229.52;;
71317;SDS011;59106;44.706;18.310;2024-01-15T13:52:34;403.40;;;229.32;;
71317;SDS011;59106;44.706;18.310;2024-01-15T13:55:00;366.80;;;205.25;;
71317;SDS011;59106;44.706;18.310;2024-01-15T13:57:27;355.35;;;187.68;;
71317;SDS011;59106;44.706;18.310;2024-01-15T13:59:53;361.88;;;190.85;;
71317;SDS011;59106;44.706;18.310;2024-01-15T14:02:18;439.40;;;255.38;;
71317;SDS011;59106;44.706;18.310;2024-01-15T14:04:46;385.05;;;214.38;;
71317;SDS011;59106;44.706;18.310;2024-01-15T14:07:12;356.67;;;195.95;;
71317;SDS011;59106;44.706;18.310;2024-01-15T14:09:38;100.00;;;50.42;;
71317;SDS011;59106;44.706;18.310;2024-01-15T14:12:04;86.07;;;46.47;;